x

Nw Lake Ontario Ajax (45159) Wave Buoy

12:00pm - Fri 25th Jul 2014 All times are CDT. -5 hours from GMT.

  • Sig Wave height 1.0ft
  • Peak Period 3s
  • Wind
    13mph, 16mph gusts
  • Sea Temp 65°f
  • Air Temp 65°f
  • Sea Pressure 1016.4mb
  • Nw Lake Ontario Ajax
  • Nw Lake Ontario Ajax

More Historic Weather Station data

Upgrade to MSW Pro to gain access to the past 30 days of data for over 8000 Wavebouys and Weather Stations around the globe.

Join Pro

Comparision Forecast

View Surf forecast
   
Fri 07/25 12:00pm 1ft 3s 13 16 mph 1016.4mb 65f 65f
11:00am 0.7ft 2s 11 13 mph 1017.2mb 64f 65f
10:00am 0.3ft 2s 11
mph
1017.7mb 64f 64f
9:00am 0.3ft 2s 9
mph
1017.5mb 64f 64f
8:00am 0.3ft 2s 4
mph
1017.8mb 64f 62f
7:00am 0.3ft 2s 9 11 mph 1017.8mb 64f 62f
6:00am  -  3s 9
mph
1017.5mb 64f 62f
5:00am  -  4s 4 7 mph 1016.9mb 64f 63f
4:00am  -  3s 7
mph
1016.3mb 64f 62f
3:00am 0.3ft 2s 4
mph
1016.4mb 64f 62f
2:00am 0.3ft 2s 4
mph
1016.5mb 64f 62f
1:00am 0.3ft 2s 9
mph
1016.6mb 64f 63f
12:00am 0.3ft 2s 9 11 mph 1017.2mb 64f 64f
Thu 07/24 11:00pm 0.3ft 3s 9 11 mph 1017.3mb 64f 65f
10:00pm 0.3ft 3s 9
mph
1017mb 64f 66f
9:00pm 0.7ft 3s 7 9 mph 1016.4mb 64f 66f
8:00pm 0.7ft 3s 7
mph
1015.8mb 64f 66f
7:00pm 1ft 3s 9 11 mph 1015.6mb 64f 65f
6:00pm 1ft 3s 11
mph
1015.6mb 64f 65f
5:00pm 1ft 3s 13 16 mph 1016mb 65f 65f
4:00pm 1ft 2s 13 16 mph 1016.4mb 64f 65f
3:00pm 0.7ft 2s 13 16 mph 1016.8mb 65f 65f
2:00pm 0.3ft 4s 13 16 mph 1017mb 65f 65f
1:00pm 0.3ft 4s 9 11 mph 1017.4mb 65f 65f
12:00pm 0.3ft 4s 9
mph
1017.7mb 65f 65f
11:00am 0.3ft 4s 4
mph
1018.2mb 64f 66f
10:00am 0.3ft 4s 4 7 mph 1018.4mb 64f 65f
9:00am 0.3ft 2s 9 11 mph 1018.3mb 64f 64f
8:00am 0.7ft 2s 11 13 mph 1018.4mb 63f 62f
7:00am 0.7ft 2s 11 13 mph 1018.2mb 63f 60f
6:00am 0.7ft 2s 16 18 mph 1017.5mb 64f 59f
5:00am 0.7ft 2s 13 16 mph 1017.4mb 64f 60f
4:00am 0.7ft 2s 11 16 mph 1017mb 64f 61f
3:00am 0.7ft 2s 13 16 mph 1016.3mb 64f 61f
2:00am 0.7ft 2s 13 16 mph 1015.9mb 64f 61f
1:00am 0.7ft 2s 13 18 mph 1015.8mb 64f 62f
12:00am 0.3ft 2s 13 16 mph 1016mb 65f 64f
Wed 07/23 11:00pm 0.3ft 2s 11 13 mph 1016mb 65f 64f
10:00pm 0.3ft 2s 11 13 mph 1015.9mb 65f 65f
9:00pm 0.3ft 2s 11 13 mph 1015.7mb 65f 66f
8:00pm 0.7ft 2s 9 11 mph 1015mb 65f 68f
7:00pm 0.7ft 2s 11 13 mph 1014.7mb 65f 69f
6:00pm 1ft 2s 18 22 mph 1014.1mb 65f 69f
5:00pm 1ft 2s 20 22 mph 1013.8mb 65f 68f
4:00pm 1ft 2s 18 22 mph 1013.5mb 65f 69f
3:00pm 1ft 2s 18 22 mph 1013.2mb 65f 70f
2:00pm 0.7ft 2s 18 22 mph 1013mb 65f 69f
1:00pm 0.7ft 2s 16 18 mph 1012.8mb 66f 69f
12:00pm 0.7ft 3s 16 18 mph 1012.6mb 66f 69f
11:00am 0.7ft 2s 11 13 mph 1012.4mb 66f 69f
10:00am 1ft 3s 13 18 mph 1012.4mb 66f 68f
9:00am 1.3ft 2s 16 20 mph 1011.8mb 65f 68f
8:00am 1.3ft 2s 22 27 mph 1011.3mb 65f 68f
7:00am 1ft 3s 16 18 mph 1010.7mb 65f 70f
6:00am 1ft 3s 9 11 mph 1010.3mb 66f 69f
5:00am 1ft 3s 16 18 mph 1010.3mb 65f 68f
4:00am 1ft 3s 11
mph
1009.5mb 65f 69f
3:00am 0.7ft 3s 13 18 mph 1009.4mb 66f 71f
2:00am 1ft 2s 11 13 mph 1010.5mb 66f 69f
1:00am 1ft 3s 16 18 mph 1010.8mb 66f 71f
12:00am 1ft 2s 16 18 mph 1011.4mb 67f 70f
Tue 07/22 11:00pm 1ft 2s 11 13 mph 1012.6mb 67f 71f
10:00pm 0.7ft 2s 7 11 mph 1014mb 67f 73f
9:00pm 0.7ft 2s 11 13 mph 1013mb 68f 73f
8:00pm 0.7ft 2s 7 9 mph 1012.7mb 67f 72f
7:00pm 0.3ft 2s 11 13 mph 1013.4mb 68f 73f
6:00pm 0.3ft 2s 9
mph
1014.5mb 67f 72f
5:00pm 0.3ft 2s 11 13 mph 1014.4mb 69f 72f
4:00pm  -  2s 11
mph
1015mb 70f 73f
3:00pm 0.3ft 3s 7 9 mph 1015.5mb 71f 72f
2:00pm 0.3ft 2s 4
mph
1016.3mb 70f 71f
1:00pm 0.3ft 3s 2 4 mph 1017.2mb 68f 70f
12:00pm 0.3ft 4s 4
mph
1017.9mb 67f 69f
11:00am 0.3ft 3s 2 4 mph 1018.4mb 67f 68f
10:00am 0.3ft 4s 9
mph
1018.8mb 67f 68f
9:00am 0.3ft 2s 4 7 mph 1019.5mb 67f 67f
8:00am 0.3ft 4s 2 4 mph 1020.1mb 67f 67f
7:00am 0.3ft 2s 4
mph
1020.1mb 66f 66f
6:00am 0.3ft 4s 2 4 mph 1019.9mb 66f 65f
5:00am 0.3ft 3s  -  2 mph 1019.5mb 66f 65f
4:00am  -  3s 4
mph
1019.4mb 64f 65f
3:00am  -  4s 4 7 mph 1019.1mb 65f 65f
2:00am  -  2s 4
mph
1019.2mb 65f 66f
1:00am 0.3ft 2s 4
mph
1019.3mb 64f 66f
12:00am 0.3ft 2s 4
mph
1019.5mb 64f 67f
Mon 07/21 11:00pm 0.3ft 4s 4 7 mph 1019.7mb 66f 67f
10:00pm 0.3ft 2s 4 7 mph 1019.7mb 66f 67f
9:00pm 0.3ft 2s 7
mph
1019.9mb 67f 68f
8:00pm  -  2s 4 7 mph 1019.3mb 67f 69f
7:00pm  -  3s 4
mph
1019.2mb 68f 70f